Nearby METAR Reports

 

ENTO - Torp (civ/Nor-Af, Norway
Distance from station: NNØ 26km
Oppdatert: 21/10/2017 04:50
Yr, Overskyet
Yr, Overskyet
 Vind fra NNØ
Vind: NNØ 17 km/h
Temperatur: 7°C
Wind Chill: 4°C
Duggpunkt: 7°C
Fuktighet: 100%
Barometer: 1017 hPa
Oversikt: Yr
Clouds: Overskyet
Visibility: 7 km
Cloud details: Overskyet 61 m
2017/10/21 02:50 ENTO 210250Z AUTO 03009KT 7000 -DZ OVC002/// 07/07 Q1017
ENSN - Skien/Geiteryggen, Norway
Distance from station: NV 31km
Oppdatert: 09/11/2015 09:50
NOT Current
Klart
Klart
 Vind fra SSV
Vind: SSV 19 km/h, Vindkast: 41 km/h
Temperatur: 7°C
Wind Chill: 4°C
Duggpunkt: 3°C
Fuktighet: 76%
Barometer: 1000 hPa
Oversikt: Klart
Visibility: greater than 10 km
2015/11/09 08:50 ENSN 090850Z 20010G22KT 150V240 CAVOK 07/03 Q1000